createdAt,value
2022-08-16T00:01:02.795Z,96763.69
2022-08-16T00:03:32.314Z,96758.63
2022-08-16T00:06:04.394Z,96755.66
2022-08-16T00:08:36.844Z,96758.41
2022-08-16T00:11:15.393Z,96752.75
2022-08-16T00:13:43.622Z,96765.44
2022-08-16T00:17:00.957Z,96762.31
2022-08-16T00:19:07.835Z,96765.47
2022-08-16T00:21:35.314Z,96763.47
2022-08-16T00:24:04.853Z,96758.19
2022-08-16T00:26:35.769Z,96748.34
2022-08-16T00:29:11.902Z,96741.53
2022-08-16T00:31:58.871Z,96747.69
2022-08-16T00:34:43.168Z,96734.47
2022-08-16T00:37:12.740Z,96742.69
2022-08-16T00:39:44.667Z,96744.38
2022-08-16T00:42:11.307Z,96741.53
2022-08-16T00:44:39.441Z,96742.47
2022-08-16T00:47:09.979Z,96735.72
2022-08-16T00:49:44.623Z,96735.72
2022-08-16T00:52:23.774Z,96739.53
2022-08-16T00:54:56.430Z,96750.50
2022-08-16T00:57:23.991Z,96747.03
2022-08-16T00:59:54.586Z,96750.66
2022-08-16T01:02:31.761Z,96761.47
2022-08-16T01:05:09.584Z,96762.34
2022-08-16T01:07:51.617Z,96767.16
2022-08-16T01:10:20.804Z,96761.81
2022-08-16T01:12:47.531Z,96766.97
2022-08-16T01:15:15.193Z,96767.31
2022-08-16T01:17:42.337Z,96761.16
2022-08-16T01:20:23.741Z,96760.34
2022-08-16T01:23:02.614Z,96766.47
2022-08-16T01:25:34.581Z,96765.22
2022-08-16T01:28:05.973Z,96765.31
2022-08-16T01:30:39.842Z,96762.59
2022-08-16T01:33:16.785Z,96759.31
2022-08-16T01:35:52.490Z,96764.41
2022-08-16T01:38:25.890Z,96772.81
2022-08-16T01:41:01.817Z,96782.97
2022-08-16T01:43:31.078Z,96782.47
2022-08-16T01:46:00.508Z,96776.88
2022-08-16T01:48:47.439Z,96778.66
2022-08-16T01:51:17.363Z,96777.47
2022-08-16T01:53:44.840Z,96784.03
2022-08-16T01:56:28.938Z,96785.19
2022-08-16T01:58:57.273Z,96786.47
2022-08-16T02:01:25.913Z,96790.13
2022-08-16T02:03:53.222Z,96789.13
2022-08-16T02:06:34.209Z,96796.25
2022-08-16T02:09:05.226Z,96794.94
2022-08-16T02:11:48.572Z,96799.91
2022-08-16T02:14:21.573Z,96794.47
2022-08-16T02:16:49.874Z,96787.38
2022-08-16T02:19:18.397Z,96782.34
2022-08-16T02:22:08.492Z,96790.53
2022-08-16T02:24:41.230Z,96786.19
2022-08-16T02:27:08.743Z,96797.28
2022-08-16T02:29:35.339Z,96807.84
2022-08-16T02:32:03.881Z,96811.31
2022-08-16T02:34:50.307Z,96815.66
2022-08-16T02:37:20.879Z,96812.25
2022-08-16T02:39:54.183Z,96807.59
2022-08-16T02:42:21.371Z,96818.75
2022-08-16T02:44:48.867Z,96829.22
2022-08-16T02:47:25.082Z,96838.84
2022-08-16T02:50:25.844Z,96833.09
2022-08-16T02:52:39.664Z,96825.16
2022-08-16T02:55:11.363Z,96823.06
2022-08-16T02:57:42.509Z,96816.19
2022-08-16T03:00:33.648Z,96812.00
2022-08-16T03:03:01.653Z,96805.50
2022-08-16T03:05:31.648Z,96804.38
2022-08-16T03:08:00.115Z,96796.06
2022-08-16T03:10:33.730Z,96796.50
2022-08-16T03:13:03.319Z,96799.03
2022-08-16T03:15:30.372Z,96794.69
2022-08-16T03:17:59.134Z,96797.56
2022-08-16T03:20:32.388Z,96798.84
2022-08-16T03:23:01.766Z,96780.59
2022-08-16T03:25:40.955Z,96797.06
2022-08-16T03:28:11.899Z,96784.69
2022-08-16T03:30:38.448Z,96781.28
2022-08-16T03:33:07.449Z,96778.13
2022-08-16T03:35:40.770Z,96783.94
2022-08-16T03:38:33.539Z,96788.59
2022-08-16T03:41:24.493Z,96787.09
2022-08-16T03:43:55.679Z,96786.94
2022-08-16T03:46:44.335Z,96793.41
2022-08-16T03:49:13.936Z,96787.59
2022-08-16T03:51:44.101Z,96795.59
2022-08-16T03:54:18.005Z,96805.81
2022-08-16T03:56:56.953Z,96804.34
2022-08-16T03:59:29.729Z,96808.78
2022-08-16T04:02:00.865Z,96814.28
2022-08-16T04:04:32.705Z,96812.81
2022-08-16T04:07:00.498Z,96814.63
2022-08-16T04:09:30.198Z,96829.97
2022-08-16T04:11:56.871Z,96821.19
2022-08-16T04:14:32.904Z,96828.66
2022-08-16T04:17:01.849Z,96837.13
2022-08-16T04:19:36.011Z,96839.34
2022-08-16T04:22:08.767Z,96844.19
2022-08-16T04:24:43.533Z,96852.97
2022-08-16T04:27:21.498Z,96851.69
2022-08-16T04:29:52.326Z,96846.31
2022-08-16T04:32:19.979Z,96841.53
2022-08-16T04:34:49.163Z,96866.81
2022-08-16T04:37:16.090Z,96864.22
2022-08-16T04:39:55.804Z,96858.63
2022-08-16T04:42:26.356Z,96852.19
2022-08-16T04:44:58.365Z,96849.84
2022-08-16T04:47:35.448Z,96859.84
2022-08-16T04:50:10.088Z,96863.47
2022-08-16T04:52:37.035Z,96876.56
2022-08-16T04:55:06.223Z,96875.00
2022-08-16T04:57:34.270Z,96882.81
2022-08-16T05:00:30.918Z,96882.78
2022-08-16T05:02:48.797Z,96871.78
2022-08-16T05:05:23.101Z,96872.09
2022-08-16T05:07:58.560Z,96876.09
2022-08-16T05:10:28.130Z,96872.81
2022-08-16T05:12:56.630Z,96873.81
2022-08-16T05:15:23.395Z,96878.22
2022-08-16T05:17:55.541Z,96872.16
2022-08-16T05:20:39.535Z,96873.66
2022-08-16T05:23:14.171Z,96875.88
2022-08-16T05:25:48.482Z,96884.97
2022-08-16T05:28:17.153Z,96879.09
2022-08-16T05:30:50.251Z,96884.06
2022-08-16T05:33:21.283Z,96886.44
2022-08-16T05:35:54.617Z,96886.78
2022-08-16T05:38:32.601Z,96880.84
2022-08-16T05:41:09.387Z,96896.59
2022-08-16T05:43:43.564Z,96902.34
2022-08-16T05:46:29.630Z,96900.38
2022-08-16T05:49:05.958Z,96900.03
2022-08-16T05:51:39.888Z,96904.13
2022-08-16T05:54:09.757Z,96910.31
2022-08-16T05:56:39.362Z,96909.63
2022-08-16T05:59:07.465Z,96911.31
2022-08-16T06:01:38.926Z,96905.66
2022-08-16T06:04:13.388Z,96917.69
2022-08-16T06:06:57.404Z,96920.25
2022-08-16T06:09:42.614Z,96915.38
2022-08-16T06:12:11.880Z,96912.16
2022-08-16T06:14:40.048Z,96919.91
2022-08-16T06:17:08.124Z,96916.91
2022-08-16T06:19:35.780Z,96922.84
2022-08-16T06:22:11.187Z,96925.59
2022-08-16T06:24:57.743Z,96925.25
2022-08-16T06:27:24.834Z,96924.75
2022-08-16T06:29:51.917Z,96922.31
2022-08-16T06:32:27.398Z,96933.59
2022-08-16T06:35:02.692Z,96930.41
2022-08-16T06:37:37.140Z,96937.25
2022-08-16T06:40:12.717Z,96941.25
2022-08-16T06:42:47.493Z,96943.19
2022-08-16T06:45:53.116Z,96946.34
2022-08-16T06:48:32.478Z,96949.09
2022-08-16T06:51:02.463Z,96949.97
2022-08-16T06:53:29.809Z,96954.38
2022-08-16T06:56:00.643Z,96951.94
2022-08-16T06:58:39.975Z,96954.00
2022-08-16T07:01:14.849Z,96951.34
2022-08-16T07:03:55.618Z,96947.72
2022-08-16T07:06:27.300Z,96957.28
2022-08-16T07:08:58.578Z,96948.63
2022-08-16T07:11:48.208Z,96952.38
2022-08-16T07:14:27.110Z,96943.66
2022-08-16T07:16:58.153Z,96947.59
2022-08-16T07:20:02.444Z,96956.41
2022-08-16T07:22:37.116Z,96959.03
2022-08-16T07:24:59.679Z,96954.16
2022-08-16T07:27:27.012Z,96952.50
2022-08-16T07:29:55.578Z,96961.22
2022-08-16T07:32:29.419Z,96953.00
2022-08-16T07:34:58.243Z,96966.63
2022-08-16T07:37:26.629Z,96965.66
2022-08-16T07:40:11.499Z,96965.13
2022-08-16T07:42:40.924Z,96966.69
2022-08-16T07:45:10.371Z,96968.28
2022-08-16T07:47:42.031Z,96968.34
2022-08-16T07:50:55.606Z,96980.06
2022-08-16T07:53:00.156Z,96982.09
2022-08-16T07:55:29.067Z,96989.75
2022-08-16T07:58:18.402Z,96990.72
2022-08-16T08:01:01.754Z,96983.44
2022-08-16T08:03:38.575Z,96981.66
2022-08-16T08:06:10.389Z,96977.78
2022-08-16T08:08:50.405Z,96978.25
2022-08-16T08:11:21.272Z,96979.75
2022-08-16T08:13:50.970Z,96985.34
2022-08-16T08:16:19.934Z,96985.72
2022-08-16T08:18:49.963Z,96982.09
2022-08-16T08:21:27.267Z,96986.81
2022-08-16T08:23:57.629Z,96988.72
2022-08-16T08:26:25.224Z,96980.47
2022-08-16T08:28:52.447Z,96979.78
2022-08-16T08:31:21.171Z,96980.22
2022-08-16T08:33:51.698Z,96983.84
2022-08-16T08:36:33.024Z,96982.19
2022-08-16T08:39:13.268Z,96989.88
2022-08-16T08:41:42.460Z,96997.63
2022-08-16T08:44:28.594Z,96987.84
2022-08-16T08:47:00.211Z,96986.53
2022-08-16T08:49:46.245Z,97005.75
2022-08-16T08:52:34.656Z,96998.78
2022-08-16T08:55:10.674Z,96998.88
2022-08-16T08:57:40.655Z,96995.72
2022-08-16T09:00:17.758Z,97004.34
2022-08-16T09:02:52.104Z,96998.47
2022-08-16T09:05:20.501Z,96998.13
2022-08-16T09:08:00.467Z,96998.16
2022-08-16T09:10:40.750Z,96986.59
2022-08-16T09:13:08.115Z,96994.16
2022-08-16T09:15:44.366Z,97001.31
2022-08-16T09:18:26.362Z,96993.75
2022-08-16T09:20:58.691Z,96989.06
2022-08-16T09:23:28.405Z,96981.56
2022-08-16T09:25:54.991Z,96984.41
2022-08-16T09:29:14.503Z,96984.50
2022-08-16T09:31:15.797Z,96987.69
2022-08-16T09:33:43.395Z,96993.47
2022-08-16T09:36:12.206Z,96990.00
2022-08-16T09:38:59.663Z,96980.06
2022-08-16T09:41:26.895Z,96986.19
2022-08-16T09:43:59.405Z,96989.50
2022-08-16T09:46:45.172Z,96988.41
2022-08-16T09:49:14.690Z,96990.34
2022-08-16T09:51:42.215Z,96990.16
2022-08-16T09:54:16.731Z,96987.47
2022-08-16T09:56:52.755Z,96992.09
2022-08-16T09:59:21.050Z,96987.81
2022-08-16T10:01:49.936Z,96994.41
2022-08-16T10:04:30.346Z,96985.84
2022-08-16T10:07:02.459Z,96989.84
2022-08-16T10:09:44.897Z,96989.03
2022-08-16T10:12:42.561Z,96989.31
2022-08-16T10:15:15.609Z,96975.91
2022-08-16T10:17:43.432Z,96989.75
2022-08-16T10:20:11.430Z,96988.09
2022-08-16T10:22:45.107Z,96984.78
2022-08-16T10:25:11.706Z,96986.78
2022-08-16T10:28:27.598Z,96982.72
2022-08-16T10:30:45.022Z,96980.75
2022-08-16T10:33:13.530Z,96977.91
2022-08-16T10:35:46.995Z,96975.63
2022-08-16T10:38:27.347Z,96976.47
2022-08-16T10:40:54.673Z,96979.34
2022-08-16T10:43:21.390Z,96976.38
2022-08-16T10:46:00.228Z,96974.25
2022-08-16T10:48:28.564Z,96976.78
2022-08-16T10:50:58.749Z,96986.31
2022-08-16T10:53:33.156Z,96978.75
2022-08-16T10:56:02.540Z,96981.88
2022-08-16T10:58:34.462Z,96993.84
2022-08-16T11:01:24.949Z,96983.16
2022-08-16T11:03:54.118Z,96988.88
2022-08-16T11:06:26.834Z,96969.63
2022-08-16T11:14:29.228Z,96976.84
2022-08-16T11:17:10.786Z,96984.66
2022-08-16T11:20:00.753Z,96980.31
2022-08-16T11:22:47.038Z,96974.75
2022-08-16T11:25:57.933Z,96985.16
2022-08-16T11:28:01.084Z,96986.09
2022-08-16T11:30:39.021Z,96996.47
2022-08-16T11:33:06.773Z,96990.00
2022-08-16T11:38:50.707Z,96980.22
2022-08-16T11:41:09.097Z,96977.81
2022-08-16T11:43:37.999Z,96990.53
2022-08-16T11:46:44.731Z,96984.09
2022-08-16T11:48:52.772Z,96989.94
2022-08-16T11:51:19.371Z,96977.81
2022-08-16T11:53:46.062Z,96977.25
2022-08-16T11:56:14.834Z,96980.22
2022-08-16T11:58:41.702Z,96981.38
2022-08-16T12:01:08.270Z,96982.72
2022-08-16T12:03:37.326Z,96975.47
2022-08-16T12:06:11.190Z,96980.72
2022-08-16T12:08:51.978Z,96974.31
2022-08-16T12:11:18.935Z,96981.50
2022-08-16T12:13:49.148Z,96977.44
2022-08-16T12:16:20.479Z,96983.00
2022-08-16T12:21:19.018Z,96977.38
2022-08-16T12:23:46.341Z,96981.91
2022-08-16T12:26:13.235Z,96975.06
2022-08-16T12:28:54.793Z,96969.66
2022-08-16T12:31:23.214Z,96976.84
2022-08-16T12:33:50.779Z,96974.00
2022-08-16T12:36:21.618Z,96973.47
2022-08-16T12:38:48.926Z,96979.69
2022-08-16T12:41:25.022Z,96979.84
2022-08-16T12:43:52.539Z,96966.84
2022-08-16T12:46:24.053Z,96967.34
2022-08-16T12:48:59.910Z,96967.94
2022-08-16T12:51:32.931Z,96970.13
2022-08-16T12:54:17.656Z,96962.66
2022-08-16T12:56:44.782Z,96962.88
2022-08-16T12:59:13.931Z,96961.19
2022-08-16T13:01:47.683Z,96954.81
2022-08-16T13:04:21.346Z,96962.00
2022-08-16T13:06:52.390Z,96951.53
2022-08-16T13:09:29.054Z,96943.06
2022-08-16T13:12:07.308Z,96950.53
2022-08-16T13:14:39.497Z,96947.53
2022-08-16T13:17:10.244Z,96943.56
2022-08-16T13:20:06.084Z,96939.38
2022-08-16T13:22:26.991Z,96942.72
2022-08-16T13:24:54.604Z,96940.31
2022-08-16T13:28:03.173Z,96938.31
2022-08-16T13:30:22.138Z,96937.06
2022-08-16T13:32:55.195Z,96938.47
2022-08-16T13:35:22.682Z,96938.22
2022-08-16T13:37:52.062Z,96930.59
2022-08-16T13:40:21.191Z,96927.47
2022-08-16T13:42:49.635Z,96929.81
2022-08-16T13:45:17.054Z,96939.84
2022-08-16T13:47:46.269Z,96931.38
2022-08-16T13:50:15.791Z,96918.94
2022-08-16T13:52:42.993Z,96925.03
2022-08-16T13:55:17.754Z,96921.63
2022-08-16T13:58:35.205Z,96921.31
2022-08-16T14:00:32.028Z,96921.66
2022-08-16T14:02:59.505Z,96919.16
2022-08-16T14:05:27.215Z,96915.94
2022-08-16T14:07:54.391Z,96918.41
2022-08-16T14:10:21.707Z,96910.75
2022-08-16T14:12:48.711Z,96909.94
2022-08-16T14:15:16.322Z,96904.63
2022-08-16T14:18:15.514Z,96917.25
2022-08-16T14:20:30.433Z,96910.81
2022-08-16T14:22:57.276Z,96908.59
2022-08-16T14:25:24.546Z,96914.56
2022-08-16T14:27:54.408Z,96912.94
2022-08-16T14:30:22.268Z,96913.34
2022-08-16T14:32:51.154Z,96925.16
2022-08-16T14:35:36.811Z,96911.44
2022-08-16T14:38:09.791Z,96911.00
2022-08-16T14:40:40.300Z,96909.09
2022-08-16T14:43:07.716Z,96913.03
2022-08-16T14:45:35.427Z,96913.97
2022-08-16T14:48:02.370Z,96912.91
2022-08-16T14:50:31.365Z,96907.75
2022-08-16T14:53:01.402Z,96913.94
2022-08-16T14:55:31.201Z,96910.25
2022-08-16T14:57:58.064Z,96913.06
2022-08-16T15:00:27.177Z,96910.25
2022-08-16T15:03:01.128Z,96915.72
2022-08-16T15:08:01.031Z,96915.22
2022-08-16T15:10:29.440Z,96904.88
2022-08-16T15:12:58.927Z,96909.50
2022-08-16T15:15:26.934Z,96917.47
2022-08-16T15:17:56.311Z,96924.59
2022-08-16T15:20:26.349Z,96915.34
2022-08-16T15:22:53.396Z,96916.06
2022-08-16T15:25:23.737Z,96908.66
2022-08-16T15:27:56.175Z,96912.09
2022-08-16T15:30:47.827Z,96910.56
2022-08-16T15:33:12.307Z,96908.84
2022-08-16T15:35:39.333Z,96916.72
2022-08-16T15:38:09.235Z,96912.81
2022-08-16T15:40:37.129Z,96912.72
2022-08-16T15:43:23.585Z,96902.13
2022-08-16T15:46:55.712Z,96903.81
2022-08-16T15:49:05.585Z,96901.91
2022-08-16T15:51:33.591Z,96906.34
2022-08-16T15:54:29.266Z,96911.41
2022-08-16T15:56:51.427Z,96909.00
2022-08-16T15:59:19.307Z,96903.38
2022-08-16T16:01:46.987Z,96905.47
2022-08-16T16:04:14.982Z,96904.91
2022-08-16T16:06:55.116Z,96901.00
2022-08-16T16:09:26.265Z,96896.66
2022-08-16T16:12:16.377Z,96891.88
2022-08-16T16:14:51.403Z,96889.88
2022-08-16T16:17:18.176Z,96898.00
2022-08-16T16:19:44.801Z,96891.03
2022-08-16T16:22:17.413Z,96895.50
2022-08-16T16:24:47.194Z,96895.38
2022-08-16T16:27:14.063Z,96899.31
2022-08-16T16:29:42.712Z,96899.47
2022-08-16T16:32:13.430Z,96899.41
2022-08-16T16:34:43.137Z,96901.78
2022-08-16T16:37:10.260Z,96902.59
2022-08-16T16:39:37.545Z,96906.03
2022-08-16T16:42:04.753Z,96911.59
2022-08-16T16:44:31.938Z,96908.88
2022-08-16T16:47:00.226Z,96909.44
2022-08-16T16:49:26.898Z,96907.41
2022-08-16T16:52:06.443Z,96906.56
2022-08-16T16:54:35.662Z,96907.91
2022-08-16T16:57:02.450Z,96907.88
2022-08-16T16:59:29.131Z,96915.50
2022-08-16T17:02:33.878Z,96904.78
2022-08-16T17:04:45.559Z,96906.94
2022-08-16T17:07:14.161Z,96906.94
2022-08-16T17:09:41.474Z,96917.13
2022-08-16T17:12:09.455Z,96916.19
2022-08-16T17:14:38.557Z,96915.94
2022-08-16T17:17:09.446Z,96922.63
2022-08-16T17:19:40.815Z,96925.53
2022-08-16T17:22:14.640Z,96936.38
2022-08-16T17:24:45.390Z,96923.91
2022-08-16T17:27:17.739Z,96933.69
2022-08-16T17:29:46.225Z,96926.22
2022-08-16T17:32:47.040Z,96931.75
2022-08-16T17:35:03.029Z,96929.88
2022-08-16T17:37:51.065Z,96939.78
2022-08-16T17:40:38.059Z,96933.97
2022-08-16T17:43:06.778Z,96944.97
2022-08-16T17:45:33.303Z,96946.16
2022-08-16T17:48:00.101Z,96952.66
2022-08-16T17:50:28.989Z,96951.59
2022-08-16T17:52:56.202Z,96957.06
2022-08-16T17:55:24.937Z,96954.84
2022-08-16T17:57:52.279Z,96962.53
2022-08-16T18:00:20.621Z,96953.53
2022-08-16T18:02:50.162Z,96964.75
2022-08-16T18:05:17.410Z,96971.13
2022-08-16T18:07:44.575Z,96969.16
2022-08-16T18:10:12.257Z,96973.41
2022-08-16T18:12:51.142Z,96972.75
2022-08-16T18:15:23.363Z,96978.16
2022-08-16T18:17:53.060Z,96972.56
2022-08-16T18:20:39.911Z,96982.47
2022-08-16T18:23:17.786Z,96984.50
2022-08-16T18:25:48.378Z,96980.63
2022-08-16T18:28:15.179Z,96992.16
2022-08-16T18:30:42.513Z,96990.38
2022-08-16T18:33:09.066Z,96994.88
2022-08-16T18:35:36.006Z,97005.66
2022-08-16T18:38:02.553Z,97003.06
2022-08-16T18:40:29.461Z,97010.72
2022-08-16T18:43:01.710Z,97014.56
2022-08-16T18:45:35.299Z,97016.84
2022-08-16T18:48:03.529Z,97021.84
2022-08-16T18:50:30.093Z,97018.91
2022-08-16T18:53:18.251Z,97027.31
2022-08-16T18:55:46.156Z,97029.97
2022-08-16T18:58:14.185Z,97027.81
2022-08-16T19:00:45.774Z,97036.28
2022-08-16T19:03:25.887Z,97037.63
2022-08-16T19:05:56.982Z,97038.16
2022-08-16T19:08:23.677Z,97037.84
2022-08-16T19:10:51.071Z,97039.91
2022-08-16T19:13:18.979Z,97047.78
2022-08-16T19:15:46.674Z,97046.84
2022-08-16T19:18:13.489Z,97053.34
2022-08-16T19:20:40.660Z,97052.66
2022-08-16T19:23:11.180Z,97050.78
2022-08-16T19:25:46.989Z,97052.72
2022-08-16T19:28:49.392Z,97060.19
2022-08-16T19:31:05.328Z,97055.69
2022-08-16T19:33:31.864Z,97062.13
2022-08-16T19:35:58.505Z,97054.88
2022-08-16T19:38:25.042Z,97059.88
2022-08-16T19:40:51.739Z,97062.19
2022-08-16T19:43:19.997Z,97067.44
2022-08-16T19:45:46.596Z,97072.53
2022-08-16T19:48:13.450Z,97072.69
2022-08-16T19:50:40.102Z,97073.34
2022-08-16T19:53:13.061Z,97069.03
2022-08-16T19:55:47.337Z,97082.34
2022-08-16T19:58:15.312Z,97072.28
2022-08-16T20:00:45.648Z,97076.50
2022-08-16T20:03:17.006Z,97085.03
2022-08-16T20:05:43.862Z,97085.63
2022-08-16T20:08:11.317Z,97080.81
2022-08-16T20:10:38.354Z,97087.34
2022-08-16T20:13:10.104Z,97086.19
2022-08-16T20:15:40.883Z,97083.09
2022-08-16T20:18:20.945Z,97087.69
2022-08-16T20:20:51.642Z,97094.66
2022-08-16T20:23:24.843Z,97088.59
2022-08-16T20:25:53.268Z,97083.09
2022-08-16T20:28:52.114Z,97090.75
2022-08-16T20:31:06.360Z,97090.91
2022-08-16T20:33:32.920Z,97093.19
2022-08-16T20:35:59.435Z,97091.31
2022-08-16T20:38:26.049Z,97087.41
2022-08-16T20:40:52.677Z,97093.75
2022-08-16T20:43:19.329Z,97099.47
2022-08-16T20:45:46.494Z,97094.16
2022-08-16T20:48:13.346Z,97091.34
2022-08-16T20:50:40.090Z,97088.81
2022-08-16T20:53:07.074Z,97097.69
2022-08-16T20:55:34.779Z,97099.75
2022-08-16T20:58:01.302Z,97090.91
2022-08-16T21:00:29.097Z,97095.41
2022-08-16T21:02:55.595Z,97100.59
2022-08-16T21:05:27.775Z,97095.50
2022-08-16T21:07:57.817Z,97086.94
2022-08-16T21:10:24.603Z,97095.50
2022-08-16T21:12:53.522Z,97107.41
2022-08-16T21:15:20.626Z,97102.94
2022-08-16T21:17:47.091Z,97099.28
2022-08-16T21:20:13.657Z,97099.34
2022-08-16T21:22:40.751Z,97103.78
2022-08-16T21:25:09.919Z,97105.69
2022-08-16T21:28:35.458Z,97103.88
2022-08-16T21:30:27.965Z,97111.16
2022-08-16T21:33:25.279Z,97108.34
2022-08-16T21:35:53.619Z,97108.97
2022-08-16T21:38:28.728Z,97113.19
2022-08-16T21:40:57.300Z,97108.53
2022-08-16T21:43:24.253Z,97113.91
2022-08-16T21:45:51.969Z,97115.94
2022-08-16T21:48:33.589Z,97119.28
2022-08-16T21:51:01.367Z,97119.06
2022-08-16T21:53:28.418Z,97117.44
2022-08-16T21:55:56.364Z,97124.09
2022-08-16T21:58:23.663Z,97129.31
2022-08-16T22:00:50.548Z,97123.97
2022-08-16T22:03:17.792Z,97125.28
2022-08-16T22:05:45.279Z,97119.78
2022-08-16T22:08:31.750Z,97124.22
2022-08-16T22:11:06.529Z,97126.84
2022-08-16T22:13:35.425Z,97121.81
2022-08-16T22:16:06.834Z,97114.44
2022-08-16T22:18:33.347Z,97126.22
2022-08-16T22:20:59.886Z,97126.84
2022-08-16T22:23:26.606Z,97128.91
2022-08-16T22:25:53.833Z,97132.88
2022-08-16T22:28:21.105Z,97135.69
2022-08-16T22:30:48.551Z,97131.06
2022-08-16T22:33:19.934Z,97126.06
2022-08-16T22:35:48.172Z,97129.41
2022-08-16T22:38:55.751Z,97132.47
2022-08-16T22:41:04.163Z,97128.25
2022-08-16T22:43:32.605Z,97119.91
2022-08-16T22:45:59.310Z,97123.06
2022-08-16T22:48:25.833Z,97121.09
2022-08-16T22:50:52.913Z,97114.63
2022-08-16T22:53:19.972Z,97130.63
2022-08-16T22:55:46.976Z,97136.72
2022-08-16T22:58:13.950Z,97134.97
2022-08-16T23:00:40.567Z,97136.28
2022-08-16T23:03:08.748Z,97126.72
2022-08-16T23:05:37.453Z,97127.84
2022-08-16T23:08:05.785Z,97121.16
2022-08-16T23:10:32.311Z,97127.47
2022-08-16T23:13:00.459Z,97121.78
2022-08-16T23:15:28.490Z,97114.41
2022-08-16T23:17:55.887Z,97115.78
2022-08-16T23:20:24.249Z,97110.78
2022-08-16T23:23:19.554Z,97109.50
2022-08-16T23:25:40.519Z,97102.09
2022-08-16T23:28:07.546Z,97103.31
2022-08-16T23:30:38.884Z,97098.91
2022-08-16T23:33:09.606Z,97101.63
2022-08-16T23:35:45.567Z,97099.34
2022-08-16T23:38:37.855Z,97102.56
2022-08-16T23:41:00.570Z,97103.59
2022-08-16T23:43:28.545Z,97097.41
2022-08-16T23:45:56.822Z,97099.22
2022-08-16T23:48:26.270Z,97100.84
2022-08-16T23:50:53.909Z,97103.50
2022-08-16T23:53:21.976Z,97106.25
2022-08-16T23:55:53.111Z,97103.69
2022-08-16T23:58:21.683Z,97095.06
